sensor_id;sensor_type;location;lat;lon;timestamp;P1;durP1;ratioP1;P2;durP2;ratioP2
55031;SDS011;40928;51.076;7.950;2022-10-13T00:01:08;13.85;;;6.22;;
55031;SDS011;40928;51.076;7.950;2022-10-13T00:03:38;12.55;;;6.00;;
55031;SDS011;40928;51.076;7.950;2022-10-13T00:06:06;19.88;;;6.60;;
55031;SDS011;40928;51.076;7.950;2022-10-13T00:08:34;12.35;;;5.78;;
55031;SDS011;40928;51.076;7.950;2022-10-13T00:11:00;14.13;;;7.10;;
55031;SDS011;40928;51.076;7.950;2022-10-13T00:13:33;12.10;;;5.55;;
55031;SDS011;40928;51.076;7.950;2022-10-13T00:16:00;10.80;;;5.95;;
55031;SDS011;40928;51.076;7.950;2022-10-13T00:18:28;10.68;;;5.90;;
55031;SDS011;40928;51.076;7.950;2022-10-13T00:20:55;17.77;;;6.50;;
55031;SDS011;40928;51.076;7.950;2022-10-13T00:23:20;13.73;;;6.75;;
55031;SDS011;40928;51.076;7.950;2022-10-13T00:25:47;16.92;;;6.50;;
55031;SDS011;40928;51.076;7.950;2022-10-13T00:28:14;12.40;;;6.00;;
55031;SDS011;40928;51.076;7.950;2022-10-13T00:30:43;14.80;;;6.97;;
55031;SDS011;40928;51.076;7.950;2022-10-13T00:33:09;11.38;;;6.20;;
55031;SDS011;40928;51.076;7.950;2022-10-13T00:35:43;21.92;;;8.80;;
55031;SDS011;40928;51.076;7.950;2022-10-13T00:38:13;18.75;;;7.65;;
55031;SDS011;40928;51.076;7.950;2022-10-13T00:40:41;14.65;;;7.47;;
55031;SDS011;40928;51.076;7.950;2022-10-13T00:43:13;19.90;;;8.05;;
55031;SDS011;40928;51.076;7.950;2022-10-13T00:45:41;25.50;;;9.20;;
55031;SDS011;40928;51.076;7.950;2022-10-13T00:48:07;19.60;;;8.32;;
55031;SDS011;40928;51.076;7.950;2022-10-13T00:50:34;33.67;;;10.35;;
55031;SDS011;40928;51.076;7.950;2022-10-13T00:53:03;27.60;;;9.25;;
55031;SDS011;40928;51.076;7.950;2022-10-13T00:55:30;35.40;;;12.13;;
55031;SDS011;40928;51.076;7.950;2022-10-13T00:58:01;38.78;;;11.82;;
55031;SDS011;40928;51.076;7.950;2022-10-13T01:00:28;41.75;;;12.43;;
55031;SDS011;40928;51.076;7.950;2022-10-13T01:02:55;37.22;;;12.20;;
55031;SDS011;40928;51.076;7.950;2022-10-13T01:05:21;36.08;;;11.88;;
55031;SDS011;40928;51.076;7.950;2022-10-13T01:07:47;31.00;;;12.00;;
55031;SDS011;40928;51.076;7.950;2022-10-13T01:10:34;24.48;;;10.80;;
55031;SDS011;40928;51.076;7.950;2022-10-13T01:18:45;23.10;;;10.23;;
55031;SDS011;40928;51.076;7.950;2022-10-13T01:37:55;20.17;;;6.97;;
55031;SDS011;40928;51.076;7.950;2022-10-13T01:40:48;18.98;;;8.00;;
55031;SDS011;40928;51.076;7.950;2022-10-13T01:43:24;16.40;;;7.60;;
55031;SDS011;40928;51.076;7.950;2022-10-13T01:48:43;18.42;;;7.47;;
55031;SDS011;40928;51.076;7.950;2022-10-13T01:51:11;13.60;;;6.93;;
55031;SDS011;40928;51.076;7.950;2022-10-13T01:53:40;11.23;;;6.03;;
55031;SDS011;40928;51.076;7.950;2022-10-13T01:56:08;17.52;;;8.25;;
55031;SDS011;40928;51.076;7.950;2022-10-13T01:58:35;14.85;;;6.20;;
55031;SDS011;40928;51.076;7.950;2022-10-13T02:01:05;13.23;;;7.30;;
55031;SDS011;40928;51.076;7.950;2022-10-13T02:06:40;10.02;;;5.45;;
55031;SDS011;40928;51.076;7.950;2022-10-13T02:09:20;16.10;;;6.28;;
55031;SDS011;40928;51.076;7.950;2022-10-13T02:11:51;23.80;;;7.13;;
55031;SDS011;40928;51.076;7.950;2022-10-13T02:14:26;15.80;;;7.53;;
55031;SDS011;40928;51.076;7.950;2022-10-13T02:16:54;14.70;;;7.70;;
55031;SDS011;40928;51.076;7.950;2022-10-13T02:19:23;14.13;;;7.57;;
55031;SDS011;40928;51.076;7.950;2022-10-13T02:21:49;13.35;;;6.57;;
55031;SDS011;40928;51.076;7.950;2022-10-13T02:24:16;15.20;;;6.15;;
55031;SDS011;40928;51.076;7.950;2022-10-13T02:26:41;12.50;;;6.97;;
55031;SDS011;40928;51.076;7.950;2022-10-13T02:29:10;17.02;;;8.43;;
55031;SDS011;40928;51.076;7.950;2022-10-13T02:31:37;15.20;;;8.32;;
55031;SDS011;40928;51.076;7.950;2022-10-13T02:34:03;21.02;;;9.63;;
55031;SDS011;40928;51.076;7.950;2022-10-13T02:36:30;14.70;;;7.78;;
55031;SDS011;40928;51.076;7.950;2022-10-13T02:38:55;20.95;;;8.05;;
55031;SDS011;40928;51.076;7.950;2022-10-13T02:41:21;18.02;;;7.60;;
55031;SDS011;40928;51.076;7.950;2022-10-13T02:43:47;12.07;;;6.90;;
55031;SDS011;40928;51.076;7.950;2022-10-13T02:46:12;13.77;;;7.07;;
55031;SDS011;40928;51.076;7.950;2022-10-13T02:48:38;18.00;;;8.02;;
55031;SDS011;40928;51.076;7.950;2022-10-13T02:51:03;13.35;;;7.72;;
55031;SDS011;40928;51.076;7.950;2022-10-13T02:53:29;13.95;;;6.97;;
55031;SDS011;40928;51.076;7.950;2022-10-13T02:55:54;16.70;;;8.23;;
55031;SDS011;40928;51.076;7.950;2022-10-13T02:58:20;17.88;;;7.50;;
55031;SDS011;40928;51.076;7.950;2022-10-13T03:00:45;17.05;;;8.73;;
55031;SDS011;40928;51.076;7.950;2022-10-13T03:03:11;13.85;;;7.43;;
55031;SDS011;40928;51.076;7.950;2022-10-13T03:05:36;13.18;;;7.65;;
55031;SDS011;40928;51.076;7.950;2022-10-13T03:08:02;18.50;;;8.55;;
55031;SDS011;40928;51.076;7.950;2022-10-13T03:10:30;16.50;;;8.70;;
55031;SDS011;40928;51.076;7.950;2022-10-13T03:12:56;16.48;;;8.75;;
55031;SDS011;40928;51.076;7.950;2022-10-13T03:15:22;18.85;;;8.63;;
55031;SDS011;40928;51.076;7.950;2022-10-13T03:17:48;17.73;;;8.07;;
55031;SDS011;40928;51.076;7.950;2022-10-13T03:20:13;16.98;;;7.78;;
55031;SDS011;40928;51.076;7.950;2022-10-13T03:22:39;18.63;;;8.32;;
55031;SDS011;40928;51.076;7.950;2022-10-13T03:25:05;13.55;;;7.57;;
55031;SDS011;40928;51.076;7.950;2022-10-13T03:27:31;17.65;;;8.43;;
55031;SDS011;40928;51.076;7.950;2022-10-13T03:29:56;17.23;;;8.20;;
55031;SDS011;40928;51.076;7.950;2022-10-13T03:32:22;18.90;;;8.07;;
55031;SDS011;40928;51.076;7.950;2022-10-13T03:34:48;13.50;;;6.88;;
55031;SDS011;40928;51.076;7.950;2022-10-13T03:37:15;14.98;;;7.00;;
55031;SDS011;40928;51.076;7.950;2022-10-13T03:39:41;21.42;;;8.13;;
55031;SDS011;40928;51.076;7.950;2022-10-13T03:42:07;13.77;;;8.10;;
55031;SDS011;40928;51.076;7.950;2022-10-13T03:44:36;15.02;;;7.93;;
55031;SDS011;40928;51.076;7.950;2022-10-13T03:47:01;17.00;;;7.95;;
55031;SDS011;40928;51.076;7.950;2022-10-13T03:49:27;15.80;;;7.55;;
55031;SDS011;40928;51.076;7.950;2022-10-13T03:51:52;16.50;;;7.97;;
55031;SDS011;40928;51.076;7.950;2022-10-13T03:54:19;18.27;;;7.55;;
55031;SDS011;40928;51.076;7.950;2022-10-13T03:56:47;14.30;;;7.03;;
55031;SDS011;40928;51.076;7.950;2022-10-13T03:59:14;13.23;;;7.00;;
55031;SDS011;40928;51.076;7.950;2022-10-13T04:01:41;14.05;;;7.05;;
55031;SDS011;40928;51.076;7.950;2022-10-13T04:04:08;15.68;;;7.47;;
55031;SDS011;40928;51.076;7.950;2022-10-13T04:06:36;14.82;;;7.32;;
55031;SDS011;40928;51.076;7.950;2022-10-13T04:09:01;17.52;;;7.88;;
55031;SDS011;40928;51.076;7.950;2022-10-13T04:11:27;13.70;;;7.57;;
55031;SDS011;40928;51.076;7.950;2022-10-13T04:13:57;18.05;;;8.40;;
55031;SDS011;40928;51.076;7.950;2022-10-13T04:16:24;12.02;;;6.25;;
55031;SDS011;40928;51.076;7.950;2022-10-13T04:18:59;12.40;;;6.70;;
55031;SDS011;40928;51.076;7.950;2022-10-13T04:21:27;14.50;;;7.68;;
55031;SDS011;40928;51.076;7.950;2022-10-13T04:23:54;16.83;;;7.88;;
55031;SDS011;40928;51.076;7.950;2022-10-13T04:26:22;13.35;;;6.80;;
55031;SDS011;40928;51.076;7.950;2022-10-13T04:28:50;16.00;;;7.75;;
55031;SDS011;40928;51.076;7.950;2022-10-13T04:31:21;14.30;;;6.93;;
55031;SDS011;40928;51.076;7.950;2022-10-13T04:33:47;19.33;;;7.95;;
55031;SDS011;40928;51.076;7.950;2022-10-13T04:36:14;15.30;;;7.93;;
55031;SDS011;40928;51.076;7.950;2022-10-13T04:38:41;16.05;;;7.97;;
55031;SDS011;40928;51.076;7.950;2022-10-13T04:41:08;13.07;;;6.75;;
55031;SDS011;40928;51.076;7.950;2022-10-13T04:43:34;16.83;;;7.47;;
55031;SDS011;40928;51.076;7.950;2022-10-13T04:46:04;19.13;;;10.68;;
55031;SDS011;40928;51.076;7.950;2022-10-13T04:48:36;14.57;;;7.85;;
55031;SDS011;40928;51.076;7.950;2022-10-13T04:51:03;15.48;;;8.07;;
55031;SDS011;40928;51.076;7.950;2022-10-13T04:53:31;15.38;;;7.40;;
55031;SDS011;40928;51.076;7.950;2022-10-13T04:56:00;14.38;;;7.15;;
55031;SDS011;40928;51.076;7.950;2022-10-13T04:58:28;15.80;;;6.28;;
55031;SDS011;40928;51.076;7.950;2022-10-13T05:00:57;10.73;;;6.47;;
55031;SDS011;40928;51.076;7.950;2022-10-13T05:03:23;11.38;;;6.13;;
55031;SDS011;40928;51.076;7.950;2022-10-13T05:05:51;11.73;;;6.00;;
55031;SDS011;40928;51.076;7.950;2022-10-13T05:08:16;16.55;;;6.95;;
55031;SDS011;40928;51.076;7.950;2022-10-13T05:10:42;13.23;;;5.88;;
55031;SDS011;40928;51.076;7.950;2022-10-13T05:13:16;12.77;;;5.40;;
55031;SDS011;40928;51.076;7.950;2022-10-13T05:15:43;9.93;;;5.43;;
55031;SDS011;40928;51.076;7.950;2022-10-13T05:18:09;11.65;;;6.00;;
55031;SDS011;40928;51.076;7.950;2022-10-13T05:20:34;12.65;;;5.88;;
55031;SDS011;40928;51.076;7.950;2022-10-13T05:23:00;9.35;;;4.80;;
55031;SDS011;40928;51.076;7.950;2022-10-13T05:25:25;9.68;;;4.60;;
55031;SDS011;40928;51.076;7.950;2022-10-13T05:27:51;10.32;;;5.18;;
55031;SDS011;40928;51.076;7.950;2022-10-13T05:30:16;9.95;;;4.55;;
55031;SDS011;40928;51.076;7.950;2022-10-13T05:32:42;6.95;;;4.10;;
55031;SDS011;40928;51.076;7.950;2022-10-13T05:35:07;10.02;;;5.07;;
55031;SDS011;40928;51.076;7.950;2022-10-13T05:37:35;9.20;;;5.40;;
55031;SDS011;40928;51.076;7.950;2022-10-13T05:40:00;7.97;;;3.85;;
55031;SDS011;40928;51.076;7.950;2022-10-13T05:42:27;10.93;;;4.78;;
55031;SDS011;40928;51.076;7.950;2022-10-13T05:44:53;8.43;;;4.63;;
55031;SDS011;40928;51.076;7.950;2022-10-13T05:47:19;7.95;;;4.32;;
55031;SDS011;40928;51.076;7.950;2022-10-13T05:49:44;15.15;;;5.90;;
55031;SDS011;40928;51.076;7.950;2022-10-13T05:52:10;9.88;;;5.10;;
55031;SDS011;40928;51.076;7.950;2022-10-13T05:54:38;10.10;;;4.80;;
55031;SDS011;40928;51.076;7.950;2022-10-13T05:59:49;7.88;;;4.00;;
55031;SDS011;40928;51.076;7.950;2022-10-13T06:02:24;11.40;;;4.53;;
55031;SDS011;40928;51.076;7.950;2022-10-13T06:04:52;7.05;;;3.85;;
55031;SDS011;40928;51.076;7.950;2022-10-13T06:07:21;9.45;;;4.95;;
55031;SDS011;40928;51.076;7.950;2022-10-13T06:09:47;6.85;;;3.83;;
55031;SDS011;40928;51.076;7.950;2022-10-13T06:12:14;10.27;;;4.18;;
55031;SDS011;40928;51.076;7.950;2022-10-13T06:14:39;7.10;;;3.95;;
55031;SDS011;40928;51.076;7.950;2022-10-13T06:17:08;8.48;;;4.22;;
55031;SDS011;40928;51.076;7.950;2022-10-13T06:19:33;7.72;;;4.20;;
55031;SDS011;40928;51.076;7.950;2022-10-13T06:22:05;6.05;;;3.78;;
55031;SDS011;40928;51.076;7.950;2022-10-13T06:24:31;7.15;;;4.07;;
55031;SDS011;40928;51.076;7.950;2022-10-13T06:26:56;8.18;;;4.32;;
55031;SDS011;40928;51.076;7.950;2022-10-13T06:29:22;7.70;;;4.15;;
55031;SDS011;40928;51.076;7.950;2022-10-13T06:31:48;6.70;;;4.15;;
55031;SDS011;40928;51.076;7.950;2022-10-13T06:34:13;7.13;;;4.65;;
55031;SDS011;40928;51.076;7.950;2022-10-13T06:36:42;6.25;;;3.53;;
55031;SDS011;40928;51.076;7.950;2022-10-13T06:39:10;7.80;;;3.72;;
55031;SDS011;40928;51.076;7.950;2022-10-13T06:41:35;7.65;;;4.47;;
55031;SDS011;40928;51.076;7.950;2022-10-13T06:44:01;8.70;;;3.92;;
55031;SDS011;40928;51.076;7.950;2022-10-13T06:46:28;9.82;;;4.15;;
55031;SDS011;40928;51.076;7.950;2022-10-13T06:48:53;7.07;;;4.03;;
55031;SDS011;40928;51.076;7.950;2022-10-13T06:51:19;8.50;;;4.75;;
55031;SDS011;40928;51.076;7.950;2022-10-13T06:53:45;9.43;;;4.60;;
55031;SDS011;40928;51.076;7.950;2022-10-13T06:56:11;10.05;;;4.78;;
55031;SDS011;40928;51.076;7.950;2022-10-13T06:58:36;8.25;;;5.13;;
55031;SDS011;40928;51.076;7.950;2022-10-13T07:01:02;10.95;;;5.22;;
55031;SDS011;40928;51.076;7.950;2022-10-13T07:03:28;8.05;;;4.45;;
55031;SDS011;40928;51.076;7.950;2022-10-13T07:05:58;7.30;;;4.40;;
55031;SDS011;40928;51.076;7.950;2022-10-13T07:08:28;8.63;;;4.63;;
55031;SDS011;40928;51.076;7.950;2022-10-13T07:10:54;7.97;;;3.58;;
55031;SDS011;40928;51.076;7.950;2022-10-13T07:13:19;7.82;;;4.53;;
55031;SDS011;40928;51.076;7.950;2022-10-13T07:15:45;8.95;;;5.38;;
55031;SDS011;40928;51.076;7.950;2022-10-13T07:18:10;13.48;;;4.95;;
55031;SDS011;40928;51.076;7.950;2022-10-13T07:20:36;7.40;;;4.50;;
55031;SDS011;40928;51.076;7.950;2022-10-13T07:23:01;9.15;;;4.63;;
55031;SDS011;40928;51.076;7.950;2022-10-13T07:25:27;8.77;;;5.20;;
55031;SDS011;40928;51.076;7.950;2022-10-13T07:27:52;8.30;;;5.00;;
55031;SDS011;40928;51.076;7.950;2022-10-13T07:30:18;7.45;;;4.20;;
55031;SDS011;40928;51.076;7.950;2022-10-13T07:32:46;6.82;;;4.32;;
55031;SDS011;40928;51.076;7.950;2022-10-13T07:35:12;8.07;;;4.57;;
55031;SDS011;40928;51.076;7.950;2022-10-13T07:37:37;7.97;;;5.35;;
55031;SDS011;40928;51.076;7.950;2022-10-13T07:40:03;8.10;;;5.05;;
55031;SDS011;40928;51.076;7.950;2022-10-13T07:42:30;11.13;;;6.03;;
55031;SDS011;40928;51.076;7.950;2022-10-13T07:44:55;9.40;;;5.65;;
55031;SDS011;40928;51.076;7.950;2022-10-13T07:47:21;7.43;;;4.43;;
55031;SDS011;40928;51.076;7.950;2022-10-13T07:49:47;8.98;;;5.38;;
55031;SDS011;40928;51.076;7.950;2022-10-13T07:52:12;18.00;;;10.18;;
55031;SDS011;40928;51.076;7.950;2022-10-13T07:54:38;20.63;;;10.88;;
55031;SDS011;40928;51.076;7.950;2022-10-13T07:57:03;19.80;;;10.40;;
55031;SDS011;40928;51.076;7.950;2022-10-13T07:59:30;13.23;;;7.57;;
55031;SDS011;40928;51.076;7.950;2022-10-13T08:01:57;13.85;;;7.25;;
55031;SDS011;40928;51.076;7.950;2022-10-13T08:04:27;9.50;;;5.35;;
55031;SDS011;40928;51.076;7.950;2022-10-13T08:06:58;9.38;;;5.82;;
55031;SDS011;40928;51.076;7.950;2022-10-13T08:09:24;9.93;;;6.40;;
55031;SDS011;40928;51.076;7.950;2022-10-13T08:11:51;12.85;;;7.97;;
55031;SDS011;40928;51.076;7.950;2022-10-13T08:14:17;20.45;;;9.88;;
55031;SDS011;40928;51.076;7.950;2022-10-13T08:16:42;20.42;;;9.63;;
55031;SDS011;40928;51.076;7.950;2022-10-13T08:19:14;20.42;;;9.68;;
55031;SDS011;40928;51.076;7.950;2022-10-13T08:21:41;24.88;;;9.73;;
55031;SDS011;40928;51.076;7.950;2022-10-13T08:24:08;25.70;;;9.52;;
55031;SDS011;40928;51.076;7.950;2022-10-13T08:26:36;19.52;;;9.27;;
55031;SDS011;40928;51.076;7.950;2022-10-13T08:29:02;24.48;;;7.82;;
55031;SDS011;40928;51.076;7.950;2022-10-13T08:31:28;22.35;;;8.73;;
55031;SDS011;40928;51.076;7.950;2022-10-13T08:33:54;20.60;;;7.90;;
55031;SDS011;40928;51.076;7.950;2022-10-13T08:36:19;17.40;;;8.57;;
55031;SDS011;40928;51.076;7.950;2022-10-13T08:38:45;17.40;;;8.23;;
55031;SDS011;40928;51.076;7.950;2022-10-13T08:41:14;21.40;;;8.50;;
55031;SDS011;40928;51.076;7.950;2022-10-13T08:43:53;24.08;;;8.70;;
55031;SDS011;40928;51.076;7.950;2022-10-13T08:46:25;15.93;;;8.25;;
55031;SDS011;40928;51.076;7.950;2022-10-13T08:48:56;23.35;;;8.95;;
55031;SDS011;40928;51.076;7.950;2022-10-13T08:51:25;24.98;;;9.43;;
55031;SDS011;40928;51.076;7.950;2022-10-13T08:53:52;21.10;;;8.98;;
55031;SDS011;40928;51.076;7.950;2022-10-13T08:58:52;24.98;;;8.30;;
55031;SDS011;40928;51.076;7.950;2022-10-13T09:03:54;20.17;;;8.07;;
55031;SDS011;40928;51.076;7.950;2022-10-13T09:06:27;19.88;;;9.50;;
55031;SDS011;40928;51.076;7.950;2022-10-13T09:08:59;21.05;;;8.90;;
55031;SDS011;40928;51.076;7.950;2022-10-13T09:11:45;18.00;;;8.73;;
55031;SDS011;40928;51.076;7.950;2022-10-13T09:16:53;23.52;;;8.73;;
55031;SDS011;40928;51.076;7.950;2022-10-13T09:19:22;20.17;;;8.52;;
55031;SDS011;40928;51.076;7.950;2022-10-13T09:22:21;23.80;;;9.10;;
55031;SDS011;40928;51.076;7.950;2022-10-13T09:27:40;15.13;;;8.57;;
55031;SDS011;40928;51.076;7.950;2022-10-13T09:32:46;22.23;;;9.18;;
55031;SDS011;40928;51.076;7.950;2022-10-13T09:35:19;22.92;;;9.48;;
55031;SDS011;40928;51.076;7.950;2022-10-13T09:37:46;17.25;;;8.77;;
55031;SDS011;40928;51.076;7.950;2022-10-13T09:40:26;17.65;;;7.93;;
55031;SDS011;40928;51.076;7.950;2022-10-13T09:42:55;24.42;;;8.15;;
55031;SDS011;40928;51.076;7.950;2022-10-13T09:45:23;20.35;;;8.65;;
55031;SDS011;40928;51.076;7.950;2022-10-13T09:47:56;16.15;;;8.40;;
55031;SDS011;40928;51.076;7.950;2022-10-13T09:50:26;16.05;;;7.32;;
55031;SDS011;40928;51.076;7.950;2022-10-13T09:53:07;19.70;;;8.48;;
55031;SDS011;40928;51.076;7.950;2022-10-13T09:55:40;14.45;;;7.60;;
55031;SDS011;40928;51.076;7.950;2022-10-13T09:58:11;17.63;;;7.40;;
55031;SDS011;40928;51.076;7.950;2022-10-13T10:00:39;15.65;;;7.65;;
55031;SDS011;40928;51.076;7.950;2022-10-13T10:03:14;14.40;;;7.10;;
55031;SDS011;40928;51.076;7.950;2022-10-13T10:05:51;13.07;;;6.22;;
55031;SDS011;40928;51.076;7.950;2022-10-13T10:08:35;17.05;;;7.15;;
55031;SDS011;40928;51.076;7.950;2022-10-13T10:11:10;12.82;;;6.63;;
55031;SDS011;40928;51.076;7.950;2022-10-13T10:13:38;14.32;;;6.30;;
55031;SDS011;40928;51.076;7.950;2022-10-13T10:18:48;13.40;;;5.70;;
55031;SDS011;40928;51.076;7.950;2022-10-13T10:24:21;14.80;;;6.35;;
55031;SDS011;40928;51.076;7.950;2022-10-13T10:32:20;16.85;;;7.40;;
55031;SDS011;40928;51.076;7.950;2022-10-13T10:35:23;16.13;;;7.97;;
55031;SDS011;40928;51.076;7.950;2022-10-13T10:41:03;14.82;;;6.57;;
55031;SDS011;40928;51.076;7.950;2022-10-13T10:43:50;13.02;;;5.88;;
55031;SDS011;40928;51.076;7.950;2022-10-13T10:46:23;19.05;;;6.35;;
55031;SDS011;40928;51.076;7.950;2022-10-13T10:48:53;13.18;;;6.85;;
55031;SDS011;40928;51.076;7.950;2022-10-13T10:51:24;19.15;;;6.93;;
55031;SDS011;40928;51.076;7.950;2022-10-13T10:53:59;12.75;;;6.40;;
55031;SDS011;40928;51.076;7.950;2022-10-13T10:56:42;17.27;;;6.68;;
55031;SDS011;40928;51.076;7.950;2022-10-13T11:19:44;17.83;;;5.85;;
55031;SDS011;40928;51.076;7.950;2022-10-13T11:22:13;16.48;;;5.93;;
55031;SDS011;40928;51.076;7.950;2022-10-13T11:54:15;20.10;;;6.32;;
55031;SDS011;40928;51.076;7.950;2022-10-13T11:57:16;13.90;;;6.45;;
55031;SDS011;40928;51.076;7.950;2022-10-13T11:59:47;15.60;;;6.60;;
55031;SDS011;40928;51.076;7.950;2022-10-13T12:02:25;11.57;;;5.68;;
55031;SDS011;40928;51.076;7.950;2022-10-13T12:05:06;16.80;;;6.50;;
55031;SDS011;40928;51.076;7.950;2022-10-13T12:07:41;12.45;;;5.50;;
55031;SDS011;40928;51.076;7.950;2022-10-13T12:10:13;8.57;;;4.93;;
55031;SDS011;40928;51.076;7.950;2022-10-13T12:12:49;12.57;;;5.68;;
55031;SDS011;40928;51.076;7.950;2022-10-13T12:15:26;13.57;;;5.28;;
55031;SDS011;40928;51.076;7.950;2022-10-13T12:17:57;11.93;;;5.05;;
55031;SDS011;40928;51.076;7.950;2022-10-13T12:20:24;10.07;;;4.95;;
55031;SDS011;40928;51.076;7.950;2022-10-13T12:22:52;8.23;;;5.18;;
55031;SDS011;40928;51.076;7.950;2022-10-13T12:25:19;17.95;;;5.32;;
55031;SDS011;40928;51.076;7.950;2022-10-13T12:27:51;18.30;;;5.78;;
55031;SDS011;40928;51.076;7.950;2022-10-13T12:30:29;11.93;;;5.03;;
55031;SDS011;40928;51.076;7.950;2022-10-13T12:33:00;11.75;;;4.70;;
55031;SDS011;40928;51.076;7.950;2022-10-13T12:35:30;22.75;;;6.15;;
55031;SDS011;40928;51.076;7.950;2022-10-13T12:38:01;10.00;;;4.45;;
55031;SDS011;40928;51.076;7.950;2022-10-13T12:40:32;12.23;;;4.63;;
55031;SDS011;40928;51.076;7.950;2022-10-13T12:42:58;14.02;;;4.57;;
55031;SDS011;40928;51.076;7.950;2022-10-13T12:45:25;12.70;;;5.05;;
55031;SDS011;40928;51.076;7.950;2022-10-13T12:47:54;19.75;;;5.82;;
55031;SDS011;40928;51.076;7.950;2022-10-13T12:55:48;13.45;;;4.70;;
55031;SDS011;40928;51.076;7.950;2022-10-13T12:58:17;11.27;;;4.50;;
55031;SDS011;40928;51.076;7.950;2022-10-13T13:00:53;12.60;;;5.00;;
55031;SDS011;40928;51.076;7.950;2022-10-13T13:03:22;14.32;;;4.55;;
55031;SDS011;40928;51.076;7.950;2022-10-13T13:06:05;16.17;;;3.67;;
55031;SDS011;40928;51.076;7.950;2022-10-13T13:08:34;9.98;;;3.70;;
55031;SDS011;40928;51.076;7.950;2022-10-13T13:11:04;12.07;;;4.90;;
55031;SDS011;40928;51.076;7.950;2022-10-13T13:13:31;7.07;;;4.00;;
55031;SDS011;40928;51.076;7.950;2022-10-13T13:16:14;10.27;;;3.58;;
55031;SDS011;40928;51.076;7.950;2022-10-13T13:18:40;9.05;;;4.30;;
55031;SDS011;40928;51.076;7.950;2022-10-13T13:21:11;11.10;;;4.07;;
55031;SDS011;40928;51.076;7.950;2022-10-13T13:23:40;8.38;;;3.88;;
55031;SDS011;40928;51.076;7.950;2022-10-13T13:26:11;11.75;;;4.50;;
55031;SDS011;40928;51.076;7.950;2022-10-13T13:28:45;8.48;;;4.00;;
55031;SDS011;40928;51.076;7.950;2022-10-13T13:31:13;8.35;;;3.65;;
55031;SDS011;40928;51.076;7.950;2022-10-13T13:33:40;10.40;;;4.90;;
55031;SDS011;40928;51.076;7.950;2022-10-13T13:36:13;12.30;;;4.22;;
55031;SDS011;40928;51.076;7.950;2022-10-13T13:38:45;7.95;;;3.95;;
55031;SDS011;40928;51.076;7.950;2022-10-13T13:41:11;9.48;;;3.45;;
55031;SDS011;40928;51.076;7.950;2022-10-13T13:43:37;12.88;;;4.63;;
55031;SDS011;40928;51.076;7.950;2022-10-13T13:46:03;10.68;;;4.85;;
55031;SDS011;40928;51.076;7.950;2022-10-13T13:48:30;7.38;;;3.67;;
55031;SDS011;40928;51.076;7.950;2022-10-13T13:50:57;15.77;;;5.15;;
55031;SDS011;40928;51.076;7.950;2022-10-13T13:53:22;10.98;;;4.95;;
55031;SDS011;40928;51.076;7.950;2022-10-13T13:55:48;12.52;;;5.72;;
55031;SDS011;40928;51.076;7.950;2022-10-13T13:58:16;9.20;;;5.10;;
55031;SDS011;40928;51.076;7.950;2022-10-13T14:00:42;11.60;;;5.38;;
55031;SDS011;40928;51.076;7.950;2022-10-13T14:03:07;15.35;;;5.55;;
55031;SDS011;40928;51.076;7.950;2022-10-13T14:05:33;11.63;;;5.13;;
55031;SDS011;40928;51.076;7.950;2022-10-13T14:08:03;11.40;;;5.00;;
55031;SDS011;40928;51.076;7.950;2022-10-13T14:10:28;14.15;;;4.68;;
55031;SDS011;40928;51.076;7.950;2022-10-13T14:12:53;12.07;;;5.38;;
55031;SDS011;40928;51.076;7.950;2022-10-13T14:15:19;13.88;;;6.13;;
55031;SDS011;40928;51.076;7.950;2022-10-13T14:17:45;11.20;;;5.65;;
55031;SDS011;40928;51.076;7.950;2022-10-13T14:20:10;17.40;;;6.10;;
55031;SDS011;40928;51.076;7.950;2022-10-13T14:22:37;14.40;;;6.05;;
55031;SDS011;40928;51.076;7.950;2022-10-13T14:25:03;14.95;;;5.70;;
55031;SDS011;40928;51.076;7.950;2022-10-13T14:27:29;14.52;;;5.90;;
55031;SDS011;40928;51.076;7.950;2022-10-13T14:29:58;7.82;;;4.32;;
55031;SDS011;40928;51.076;7.950;2022-10-13T14:32:23;11.77;;;5.63;;
55031;SDS011;40928;51.076;7.950;2022-10-13T14:34:49;14.60;;;5.40;;
55031;SDS011;40928;51.076;7.950;2022-10-13T14:37:14;15.73;;;5.63;;
55031;SDS011;40928;51.076;7.950;2022-10-13T14:39:40;12.50;;;5.18;;
55031;SDS011;40928;51.076;7.950;2022-10-13T14:42:05;11.32;;;5.05;;
55031;SDS011;40928;51.076;7.950;2022-10-13T14:44:31;9.43;;;4.80;;
55031;SDS011;40928;51.076;7.950;2022-10-13T14:46:56;12.55;;;6.45;;
55031;SDS011;40928;51.076;7.950;2022-10-13T14:49:22;10.23;;;6.30;;
55031;SDS011;40928;51.076;7.950;2022-10-13T14:51:48;14.05;;;6.03;;
55031;SDS011;40928;51.076;7.950;2022-10-13T14:54:14;11.40;;;6.03;;
55031;SDS011;40928;51.076;7.950;2022-10-13T14:56:40;13.63;;;5.82;;
55031;SDS011;40928;51.076;7.950;2022-10-13T14:59:06;12.32;;;5.97;;
55031;SDS011;40928;51.076;7.950;2022-10-13T15:01:34;18.05;;;6.70;;
55031;SDS011;40928;51.076;7.950;2022-10-13T15:04:00;13.90;;;5.93;;
55031;SDS011;40928;51.076;7.950;2022-10-13T15:06:29;12.20;;;6.45;;
55031;SDS011;40928;51.076;7.950;2022-10-13T15:08:55;16.95;;;6.45;;
55031;SDS011;40928;51.076;7.950;2022-10-13T15:11:22;15.43;;;7.30;;
55031;SDS011;40928;51.076;7.950;2022-10-13T15:13:48;6.70;;;4.55;;
55031;SDS011;40928;51.076;7.950;2022-10-13T15:18:46;15.30;;;5.25;;
55031;SDS011;40928;51.076;7.950;2022-10-13T15:21:12;9.50;;;5.50;;
55031;SDS011;40928;51.076;7.950;2022-10-13T15:23:38;14.18;;;6.93;;
55031;SDS011;40928;51.076;7.950;2022-10-13T15:26:03;17.33;;;7.20;;
55031;SDS011;40928;51.076;7.950;2022-10-13T15:28:33;17.17;;;6.13;;
55031;SDS011;40928;51.076;7.950;2022-10-13T15:31:01;12.63;;;6.43;;
55031;SDS011;40928;51.076;7.950;2022-10-13T15:33:28;11.25;;;5.40;;
55031;SDS011;40928;51.076;7.950;2022-10-13T15:35:54;20.48;;;6.80;;
55031;SDS011;40928;51.076;7.950;2022-10-13T15:38:20;13.50;;;6.60;;
55031;SDS011;40928;51.076;7.950;2022-10-13T15:40:46;15.82;;;6.05;;
55031;SDS011;40928;51.076;7.950;2022-10-13T15:43:13;18.35;;;6.97;;
55031;SDS011;40928;51.076;7.950;2022-10-13T15:45:39;12.38;;;5.57;;
55031;SDS011;40928;51.076;7.950;2022-10-13T15:48:05;10.13;;;4.95;;
55031;SDS011;40928;51.076;7.950;2022-10-13T15:50:33;16.23;;;6.18;;
55031;SDS011;40928;51.076;7.950;2022-10-13T15:53:02;15.05;;;6.35;;
55031;SDS011;40928;51.076;7.950;2022-10-13T15:55:28;14.98;;;6.88;;
55031;SDS011;40928;51.076;7.950;2022-10-13T15:57:53;15.52;;;6.43;;
55031;SDS011;40928;51.076;7.950;2022-10-13T16:00:18;13.93;;;6.82;;
55031;SDS011;40928;51.076;7.950;2022-10-13T16:02:47;17.38;;;7.03;;
55031;SDS011;40928;51.076;7.950;2022-10-13T16:05:14;12.20;;;6.50;;
55031;SDS011;40928;51.076;7.950;2022-10-13T16:07:39;14.73;;;6.88;;
55031;SDS011;40928;51.076;7.950;2022-10-13T16:10:06;16.17;;;6.90;;
55031;SDS011;40928;51.076;7.950;2022-10-13T16:12:34;11.80;;;5.45;;
55031;SDS011;40928;51.076;7.950;2022-10-13T16:14:59;14.18;;;5.65;;
55031;SDS011;40928;51.076;7.950;2022-10-13T16:17:25;11.82;;;5.60;;
55031;SDS011;40928;51.076;7.950;2022-10-13T16:19:50;14.00;;;6.63;;
55031;SDS011;40928;51.076;7.950;2022-10-13T16:22:16;9.93;;;5.80;;
55031;SDS011;40928;51.076;7.950;2022-10-13T16:24:41;16.98;;;6.55;;
55031;SDS011;40928;51.076;7.950;2022-10-13T16:27:07;15.85;;;8.02;;
55031;SDS011;40928;51.076;7.950;2022-10-13T16:29:32;10.00;;;6.32;;
55031;SDS011;40928;51.076;7.950;2022-10-13T16:31:58;9.35;;;5.85;;
55031;SDS011;40928;51.076;7.950;2022-10-13T16:34:26;13.93;;;7.97;;
55031;SDS011;40928;51.076;7.950;2022-10-13T16:36:52;20.13;;;9.38;;
55031;SDS011;40928;51.076;7.950;2022-10-13T16:39:18;20.40;;;8.35;;